Terminal Aerodrome Forecast
Issued by NWS

Home | Current Version | Previous Version | Text Only | Print | Product List | Glossary On
Versions: 1 2 3 4 5 6 7 8 9 10 11 12 13 14 15 16 17 18
000
FTUS45 KGJT 231133
TAFASE
TAF
KASE 231133Z 2312/2412 14012G20KT P6SM -RA VCSH SCT060 BKN070
      OVC100
     FM231800 21005KT P6SM VCTS SCT045CB BKN050
     FM232200 19005KT P6SM -SHRA VCTS SCT045CB BKN050
     FM240100 17005KT P6SM VCTS SCT045CB BKN050
     FM240300 15004KT P6SM VCSH SCT045 BKN050
     FM240600 VRB03KT P6SM SCT045 BKN060=

USA.gov is the U.S. government's official web portal to all federal, state and local government web resources and services.